Time;durP1;ratioP1;P1;durP2;ratioP2;P2;SDS_P1;SDS_P2;PMS_P1;PMS_P2;Temp;Humidity;BMP_temperature;BMP_pressure;BME280_temperature;BME280_humidity;BME280_pressure;Samples;Min_cycle;Max_cycle;Signal;HPM_P1;HPM_P2
2023/03/10 00:01:10;;;;;;;;;;;;;;;4.93;90.45;98681.53;5032820;28;20041;-73
2023/03/10 00:03:35;;;;;;;0.90;0.90;;;;;;;4.81;91.17;98678.34;5052143;28;19939;-72
2023/03/10 00:06:01;;;;;;;0.88;0.68;;;;;;;4.43;92.10;98671.44;5052841;28;20032;-74
2023/03/10 00:08:27;;;;;;;0.47;0.47;;;;;;;4.66;92.25;98672.09;5051111;28;20039;-74
2023/03/10 00:10:52;;;;;;;1.35;1.25;;;;;;;4.81;91.84;98665.00;5052760;28;20033;-73
2023/03/10 00:13:18;;;;;;;0.63;0.63;;;;;;;4.72;91.57;98661.88;5048562;28;20029;-73
2023/03/10 00:15:43;;;;;;;0.63;0.63;;;;;;;4.71;91.85;98655.00;5052793;28;20128;-74
2023/03/10 00:18:09;;;;;;;0.50;0.50;;;;;;;4.62;92.33;98657.97;5035451;28;20043;-73
2023/03/10 00:20:34;;;;;;;0.65;0.65;;;;;;;4.68;92.14;98653.06;5048138;28;20058;-72
2023/03/10 00:22:59;;;;;;;0.95;0.95;;;;;;;4.73;91.95;98647.41;5043686;28;20120;-74
2023/03/10 00:25:25;;;;;;;3.03;1.42;;;;;;;4.73;91.93;98639.41;5052274;28;20081;-73
2023/03/10 00:27:51;;;;;;;0.50;0.50;;;;;;;4.55;92.25;98634.66;5049035;28;20179;-74
2023/03/10 00:30:17;;;;;;;1.23;1.20;;;;;;;4.51;93.13;98630.41;5051992;28;20048;-72
2023/03/10 00:32:42;;;;;;;0.63;0.63;;;;;;;4.68;92.05;98624.53;5051978;28;20028;-73
2023/03/10 00:35:08;;;;;;;0.98;0.52;;;;;;;4.57;92.36;98621.75;5052186;28;20631;-73
2023/03/10 00:37:37;;;;;;;1.58;1.48;;;;;;;4.69;92.37;98615.38;5045619;28;20021;-73
2023/03/10 00:40:13;;;;;;;0.50;0.50;;;;;;;4.44;92.41;98609.03;5051785;28;20456;-72
2023/03/10 00:42:39;;;;;;;0.47;0.47;;;;;;;4.32;94.13;98599.38;5051751;28;20033;-73
2023/03/10 00:45:05;;;;;;;3.53;1.50;;;;;;;4.34;93.59;98604.34;5048894;28;20043;-73
2023/03/10 00:47:30;;;;;;;0.43;0.43;;;;;;;4.30;94.00;98592.88;5051927;28;20047;-73
2023/03/10 00:49:55;;;;;;;1.38;1.27;;;;;;;4.34;93.64;98593.69;5059512;28;20079;-74
2023/03/10 00:52:21;;;;;;;2.63;0.68;;;;;;;4.29;93.83;98581.47;5045278;28;20114;-72
2023/03/10 00:54:46;;;;;;;1.20;1.20;;;;;;;4.53;93.95;98580.19;5034920;28;20040;-74
2023/03/10 00:57:12;;;;;;;0.95;0.95;;;;;;;4.53;93.29;98580.19;5051158;28;20535;-73
2023/03/10 00:59:37;;;;;;;1.10;1.00;;;;;;;4.55;92.79;98580.59;5033953;28;20401;-72
2023/03/10 01:02:03;;;;;;;1.85;1.60;;;;;;;4.45;92.92;98567.94;5050643;28;20040;-73
2023/03/10 01:04:29;;;;;;;0.30;0.30;;;;;;;4.30;93.72;98564.34;5052973;28;20032;-72
2023/03/10 01:06:55;;;;;;;0.40;0.40;;;;;;;4.47;93.54;98552.34;5051245;28;20083;-74
2023/03/10 01:09:20;;;;;;;0.60;0.60;;;;;;;4.51;92.97;98540.59;5051334;28;20032;-73
2023/03/10 01:11:46;;;;;;;0.45;0.45;;;;;;;4.50;93.07;98538.28;5050658;28;20033;-72
2023/03/10 01:14:14;;;;;;;2.40;1.08;;;;;;;4.34;93.24;98535.09;5027504;28;20091;-72
2023/03/10 01:16:39;;;;;;;1.02;1.02;;;;;;;4.20;94.13;98537.63;5032041;28;20025;-74
2023/03/10 01:19:05;;;;;;;1.02;1.02;;;;;;;4.35;94.00;98525.97;5046962;28;20985;-73
2023/03/10 01:21:34;;;;;;;1.17;1.10;;;;;;;4.33;93.94;98518.34;5031571;28;20379;-73
2023/03/10 01:24:01;;;;;;;1.55;1.27;;;;;;;4.43;93.64;98512.34;5034597;28;20039;-72
2023/03/10 01:26:27;;;;;;;1.40;1.08;;;;;;;4.44;93.45;98515.78;5050721;28;20062;-72
2023/03/10 01:28:52;;;;;;;1.27;1.25;;;;;;;4.14;93.51;98509.78;5049066;28;20018;-73
2023/03/10 01:31:18;;;;;;;0.93;0.93;;;;;;;4.08;94.00;98505.91;5050575;28;20487;-73
2023/03/10 01:33:44;;;;;;;0.75;0.75;;;;;;;4.16;94.39;98502.94;5050740;28;20040;-73
2023/03/10 01:36:14;;;;;;;0.95;0.75;;;;;;;3.94;94.84;98503.84;5050858;28;20040;-73
2023/03/10 01:38:40;;;;;;;0.82;0.82;;;;;;;3.80;96.09;98493.03;5033838;28;20044;-73
2023/03/10 01:41:06;;;;;;;1.35;1.25;;;;;;;3.97;95.65;98489.81;5033727;28;20040;-74
2023/03/10 01:43:39;;;;;;;0.52;0.52;;;;;;;4.14;95.09;98496.47;5047329;28;20037;-73
2023/03/10 01:46:25;;;;;;;0.45;0.45;;;;;;;4.12;94.29;98483.50;5039951;28;20040;-72
2023/03/10 01:48:53;;;;;;;0.77;0.77;;;;;;;4.17;94.26;98485.06;5024230;28;20090;-72
2023/03/10 01:51:19;;;;;;;2.50;1.27;;;;;;;4.06;93.99;98477.00;5045344;28;20034;-74
2023/03/10 01:53:45;;;;;;;3.60;1.13;;;;;;;4.06;94.78;98476.22;5033803;28;20481;-73
2023/03/10 01:56:11;;;;;;;0.60;0.60;;;;;;;3.99;94.83;98471.56;5033866;28;20147;-72
2023/03/10 01:58:41;;;;;;;1.98;1.00;;;;;;;3.94;95.10;98473.81;5049069;28;20033;-73
2023/03/10 02:01:09;;;;;;;1.00;0.88;;;;;;;4.16;95.26;98464.91;5046836;28;20108;-73
2023/03/10 02:03:44;;;;;;;0.85;0.85;;;;;;;4.09;93.96;98462.16;5035462;28;20496;-74
2023/03/10 02:06:13;;;;;;;0.85;0.85;;;;;;;4.05;95.83;98458.69;5047087;28;20028;-73
2023/03/10 02:08:46;;;;;;;0.95;0.95;;;;;;;4.14;94.87;98451.19;5049792;28;20033;-73
2023/03/10 02:11:13;;;;;;;1.40;1.20;;;;;;;4.01;94.96;98442.69;5032883;28;20044;-73
2023/03/10 02:13:38;;;;;;;1.15;1.10;;;;;;;4.01;95.48;98436.59;5051477;28;20393;-73
2023/03/10 02:16:04;;;;;;;1.25;1.13;;;;;;;4.08;95.00;98431.34;5030771;28;20029;-73
2023/03/10 02:18:30;;;;;;;1.50;0.85;;;;;;;4.05;95.45;98429.41;5051139;28;20028;-71
2023/03/10 02:21:07;;;;;;;1.45;1.35;;;;;;;4.15;95.46;98415.44;5064960;28;20033;-73
2023/03/10 02:23:46;;;;;;;3.13;0.77;;;;;;;4.22;94.29;98404.84;5042156;28;20041;-73
2023/03/10 02:26:21;;;;;;;0.40;0.40;;;;;;;3.96;95.25;98410.31;5051256;28;20043;-73
2023/03/10 02:28:49;;;;;;;0.90;0.90;;;;;;;3.78;96.87;98394.16;5044329;28;20401;-72
2023/03/10 02:31:16;;;;;;;2.22;1.48;;;;;;;3.81;96.63;98385.47;5032531;28;20107;-73
2023/03/10 02:33:44;;;;;;;1.45;0.80;;;;;;;3.77;97.06;98373.25;5051173;28;20032;-73
2023/03/10 02:36:18;;;;;;;1.35;1.23;;;;;;;3.94;96.34;98370.75;5050020;28;20087;-74
2023/03/10 02:38:44;;;;;;;0.77;0.77;;;;;;;3.90;96.24;98363.88;5057285;28;20028;-74
2023/03/10 02:41:32;;;;;;;1.25;0.57;;;;;;;3.91;95.92;98363.50;5049919;28;20029;-74
2023/03/10 02:44:00;;;;;;;0.70;0.70;;;;;;;3.80;96.59;98364.53;5041029;28;20091;-74
2023/03/10 02:46:28;;;;;;;1.50;1.33;;;;;;;3.75;96.71;98360.31;5031760;28;20468;-74
2023/03/10 02:48:58;;;;;;;1.20;1.20;;;;;;;3.70;97.03;98352.66;5044796;28;20060;-71
2023/03/10 02:51:41;;;;;;;1.75;0.82;;;;;;;3.80;97.71;98353.88;5042784;28;20079;-73
2023/03/10 02:54:11;;;;;;;0.65;0.65;;;;;;;4.02;96.56;98342.28;5043075;28;20036;-73
2023/03/10 02:56:37;;;;;;;0.73;0.47;;;;;;;3.95;96.35;98337.66;5038336;28;20041;-72
2023/03/10 02:59:05;;;;;;;1.10;1.08;;;;;;;3.94;96.43;98336.16;5037534;28;20021;-73
2023/03/10 03:01:32;;;;;;;0.98;0.98;;;;;;;3.94;96.39;98322.06;5047028;28;20051;-70
2023/03/10 03:03:59;;;;;;;0.90;0.90;;;;;;;3.84;96.81;98323.50;5049330;28;20025;-73
2023/03/10 03:06:25;;;;;;;0.77;0.68;;;;;;;3.75;97.00;98324.94;5040848;28;20033;-74
2023/03/10 03:08:51;;;;;;;1.20;1.05;;;;;;;3.82;96.68;98322.34;5045108;28;20083;-73
2023/03/10 03:11:18;;;;;;;1.23;1.13;;;;;;;3.86;97.00;98323.91;5049309;28;20021;-73
2023/03/10 03:13:44;;;;;;;0.93;0.93;;;;;;;3.96;96.89;98315.25;5048278;28;20063;-72
2023/03/10 03:16:10;;;;;;;0.55;0.55;;;;;;;3.98;95.99;98314.88;5049334;28;20044;-73
2023/03/10 03:18:37;;;;;;;0.75;0.75;;;;;;;4.02;96.41;98316.44;5048941;28;20032;-73
2023/03/10 03:21:09;;;;;;;0.45;0.45;;;;;;;4.01;95.76;98306.91;5045547;28;20022;-73
2023/03/10 03:23:36;;;;;;;0.68;0.68;;;;;;;3.91;96.08;98315.56;5032438;28;20067;-73
2023/03/10 03:26:04;;;;;;;0.70;0.70;;;;;;;3.88;96.96;98312.88;5049322;28;20025;-73
2023/03/10 03:28:30;;;;;;;0.82;0.82;;;;;;;3.92;96.41;98293.16;5041781;28;20029;-74
2023/03/10 03:30:56;;;;;;;0.85;0.85;;;;;;;3.90;95.88;98295.44;5048136;28;20515;-73
2023/03/10 03:33:22;;;;;;;0.70;0.70;;;;;;;3.89;96.99;98299.22;5032511;28;20401;-74
2023/03/10 03:35:48;;;;;;;1.52;1.42;;;;;;;3.72;96.80;98296.44;5031776;28;20111;-73
2023/03/10 03:38:16;;;;;;;0.60;0.60;;;;;;;3.64;97.74;98288.38;5060989;28;20136;-74
2023/03/10 03:40:43;;;;;;;1.55;0.70;;;;;;;3.68;97.86;98289.16;5048792;28;20477;-74
2023/03/10 03:43:12;;;;;;;0.52;0.52;;;;;;;3.72;97.46;98283.13;5045608;28;20155;-73
2023/03/10 03:45:38;;;;;;;1.00;1.00;;;;;;;3.81;97.25;98288.88;5046580;28;20029;-73
2023/03/10 03:48:03;;;;;;;1.25;1.15;;;;;;;3.85;96.50;98287.03;5041130;28;20032;-73
2023/03/10 03:50:31;;;;;;;1.88;0.80;;;;;;;3.70;97.12;98280.06;5047326;28;20029;-73
2023/03/10 03:53:02;;;;;;;1.08;1.08;;;;;;;3.64;97.73;98279.59;5028920;28;20390;-73
2023/03/10 03:55:29;;;;;;;0.70;0.70;;;;;;;3.91;97.23;98280.22;5029885;28;20464;-73
2023/03/10 03:57:54;;;;;;;0.40;0.40;;;;;;;3.86;96.43;98280.56;5048019;28;20064;-73
2023/03/10 04:00:22;;;;;;;0.73;0.73;;;;;;;3.82;96.79;98277.09;5035821;28;20108;-72
2023/03/10 04:02:55;;;;;;;1.27;1.00;;;;;;;3.62;97.51;98272.00;5037662;28;20044;-72
2023/03/10 04:05:21;;;;;;;1.13;1.02;;;;;;;3.73;97.30;98269.44;5049356;28;20033;-73
2023/03/10 04:07:48;;;;;;;1.27;0.60;;;;;;;3.77;97.11;98267.56;5032022;28;20037;-73
2023/03/10 04:10:18;;;;;;;0.50;0.50;;;;;;;3.74;97.61;98272.84;5047541;28;20021;-72
2023/03/10 04:12:43;;;;;;;0.55;0.55;;;;;;;3.78;97.32;98274.41;5047819;28;20036;-74
2023/03/10 04:15:10;;;;;;;3.83;0.75;;;;;;;3.58;97.91;98276.53;5031387;28;20093;-73
2023/03/10 04:17:36;;;;;;;0.70;0.70;;;;;;;3.50;98.00;98269.59;5026777;28;20045;-72
2023/03/10 04:20:05;;;;;;;1.00;1.00;;;;;;;3.44;98.83;98254.38;5048543;28;20033;-72
2023/03/10 04:22:31;;;;;;;0.47;0.47;;;;;;;3.50;98.92;98263.53;5031868;28;20033;-71
2023/03/10 04:24:57;;;;;;;1.15;1.05;;;;;;;3.45;98.49;98253.22;5038490;28;20034;-73
2023/03/10 04:27:22;;;;;;;0.50;0.50;;;;;;;3.48;99.13;98249.84;5042244;28;20515;-73
2023/03/10 04:29:48;;;;;;;0.40;0.40;;;;;;;3.56;98.99;98262.09;5044932;28;20027;-73
2023/03/10 04:32:13;;;;;;;0.30;0.30;;;;;;;3.57;98.85;98253.72;5045458;28;20032;-72
2023/03/10 04:34:40;;;;;;;0.90;0.85;;;;;;;3.74;98.29;98257.66;5046363;28;20056;-73
2023/03/10 04:37:06;;;;;;;0.45;0.45;;;;;;;3.87;97.39;98250.16;5047437;28;20064;-73
2023/03/10 04:39:32;;;;;;;0.70;0.70;;;;;;;3.68;97.09;98254.56;5044526;28;20443;-73
2023/03/10 04:41:58;;;;;;;0.95;0.95;;;;;;;3.28;98.72;98245.84;5043590;28;20038;-72
2023/03/10 04:44:24;;;;;;;0.80;0.80;;;;;;;3.11;99.97;98251.75;5042677;28;20040;-73
2023/03/10 04:46:50;;;;;;;0.90;0.88;;;;;;;3.24;100.00;98243.16;5047416;28;20039;-71
2023/03/10 04:49:17;;;;;;;1.77;0.95;;;;;;;3.36;99.95;98242.13;5033452;28;20021;-73
2023/03/10 04:51:45;;;;;;;0.50;0.50;;;;;;;3.46;99.32;98242.25;5051581;28;20017;-74
2023/03/10 04:54:10;;;;;;;0.55;0.55;;;;;;;3.30;100.00;98235.63;5030355;28;20485;-72
2023/03/10 04:56:36;;;;;;;1.65;1.05;;;;;;;3.36;100.00;98242.13;5051223;28;20029;-73
2023/03/10 04:59:02;;;;;;;0.57;0.57;;;;;;;3.41;99.96;98236.47;5033872;28;20032;-74
2023/03/10 05:01:31;;;;;;;1.48;1.27;;;;;;;3.62;98.84;98228.66;5047060;28;20029;-72
2023/03/10 05:04:02;;;;;;;1.75;1.25;;;;;;;3.71;98.73;98221.16;5022058;28;20048;-69
2023/03/10 05:06:28;;;;;;;0.40;0.40;;;;;;;3.79;97.95;98209.44;5033012;28;20482;-73
2023/03/10 05:09:03;;;;;;;1.38;1.17;;;;;;;3.63;98.21;98216.91;5047119;28;20028;-73
2023/03/10 05:11:30;;;;;;;0.32;0.32;;;;;;;3.56;98.64;98217.59;5030531;28;20033;-73
2023/03/10 05:13:56;;;;;;;0.68;0.68;;;;;;;3.60;97.73;98213.06;5033205;28;20037;-73
2023/03/10 05:16:22;;;;;;;1.13;1.08;;;;;;;3.39;98.88;98209.47;5033316;28;20068;-73
2023/03/10 05:18:49;;;;;;;1.25;1.15;;;;;;;3.32;99.17;98210.19;5031730;28;20097;-71
2023/03/10 05:21:21;;;;;;;0.83;0.73;;;;;;;3.31;99.04;98198.00;5046785;28;20036;-68
2023/03/10 05:23:47;;;;;;;0.60;0.60;;;;;;;3.29;99.26;98205.59;5034020;28;20452;-73
2023/03/10 05:26:14;;;;;;;1.55;0.70;;;;;;;3.30;99.84;98195.72;5033461;28;20044;-72
2023/03/10 05:28:40;;;;;;;0.60;0.60;;;;;;;3.35;100.00;98195.38;5049621;28;20040;-72
2023/03/10 05:31:14;;;;;;;0.82;0.82;;;;;;;3.43;99.70;98203.06;5051337;28;20033;-73
2023/03/10 05:33:43;;;;;;;0.30;0.30;;;;;;;3.40;99.20;98195.06;5040420;28;20033;-73
2023/03/10 05:36:11;;;;;;;0.32;0.32;;;;;;;3.27;99.58;98193.81;5035255;28;20105;-69
2023/03/10 05:38:38;;;;;;;0.60;0.60;;;;;;;3.30;100.00;98193.06;5049819;28;20095;-72
2023/03/10 05:41:07;;;;;;;0.47;0.47;;;;;;;3.24;100.00;98184.66;5050489;28;20017;-73
2023/03/10 05:43:33;;;;;;;0.70;0.70;;;;;;;3.22;100.00;98186.16;5051036;28;20046;-69
2023/03/10 05:46:00;;;;;;;0.60;0.60;;;;;;;3.35;99.89;98180.19;5050089;28;20028;-70
2023/03/10 05:48:29;;;;;;;0.52;0.52;;;;;;;3.17;99.73;98179.31;5038159;28;20056;-73
2023/03/10 05:50:57;;;;;;;0.40;0.40;;;;;;;3.34;99.64;98186.66;5047697;28;20523;-70
2023/03/10 05:53:22;;;;;;;0.40;0.40;;;;;;;3.22;99.82;98189.59;5042404;28;20033;-70
2023/03/10 05:55:48;;;;;;;0.40;0.40;;;;;;;3.27;99.69;98181.28;5041181;28;20653;-70
2023/03/10 05:58:14;;;;;;;0.60;0.60;;;;;;;3.31;99.83;98184.72;5044195;28;20032;-70
2023/03/10 06:01:00;;;;;;;0.30;0.30;;;;;;;3.24;99.80;98186.56;5035108;28;20040;-70
2023/03/10 06:03:27;;;;;;;0.40;0.40;;;;;;;3.21;99.53;98193.41;4986348;28;20046;-70
2023/03/10 06:05:53;;;;;;;0.73;0.52;;;;;;;3.14;100.00;98182.69;4963014;28;20052;-71
2023/03/10 06:08:18;;;;;;;0.40;0.40;;;;;;;3.32;100.00;98194.25;4948496;28;20041;-70
2023/03/10 06:10:44;;;;;;;0.60;0.60;;;;;;;3.13;100.00;98196.34;4988272;28;20030;-70
2023/03/10 06:13:09;;;;;;;0.65;0.60;;;;;;;3.29;100.00;98192.31;4968944;28;20050;-70
2023/03/10 06:15:55;;;;;;;0.70;0.70;;;;;;;3.23;100.00;98190.38;4959924;28;20042;-69
2023/03/10 06:18:20;;;;;;;1.30;1.20;;;;;;;3.26;100.00;98195.72;4905464;29;20044;-70
2023/03/10 06:20:47;;;;;;;0.57;0.57;;;;;;;3.34;100.00;98191.97;4906750;29;20141;-70
2023/03/10 06:23:16;;;;;;;0.73;0.63;;;;;;;3.58;99.06;98195.97;4912545;29;20060;-69
2023/03/10 06:26:02;;;;;;;0.50;0.50;;;;;;;3.55;98.41;98194.81;4892441;29;20645;-69
2023/03/10 06:28:31;;;;;;;0.50;0.50;;;;;;;3.27;99.05;98199.13;4849259;29;20049;-70
2023/03/10 06:31:02;;;;;;;1.52;1.10;;;;;;;3.24;99.63;98195.31;4852826;29;20033;-77
2023/03/10 06:33:28;;;;;;;1.17;0.85;;;;;;;3.24;100.00;98199.84;4854031;29;20057;-70
2023/03/10 06:35:54;;;;;;;0.65;0.65;;;;;;;3.39;100.00;98204.16;4840715;29;20116;-69
2023/03/10 06:38:20;;;;;;;0.93;0.93;;;;;;;3.08;99.92;98199.34;4823632;29;20193;-69
2023/03/10 06:40:45;;;;;;;0.98;0.98;;;;;;;3.09;100.00;98204.28;4879369;29;20743;-69
2023/03/10 06:43:11;;;;;;;1.80;0.77;;;;;;;3.30;100.00;98209.81;4919989;29;20133;-70
2023/03/10 06:45:42;;;;;;;0.60;0.60;;;;;;;3.39;100.00;98209.47;4902138;29;20043;-70
2023/03/10 06:48:07;;;;;;;0.50;0.50;;;;;;;3.43;100.00;98224.34;4901147;29;20052;-71
2023/03/10 06:50:46;;;;;;;0.73;0.73;;;;;;;3.36;99.98;98226.94;4904751;29;20044;-69
2023/03/10 06:53:13;;;;;;;1.23;1.13;;;;;;;3.44;99.87;98222.44;4897220;29;20059;-69
2023/03/10 06:55:38;;;;;;;0.73;0.73;;;;;;;3.48;99.97;98225.91;4937141;28;20111;-69
2023/03/10 06:58:04;;;;;;;1.27;1.27;;;;;;;3.50;100.00;98231.63;4982753;28;20023;-71
2023/03/10 07:00:29;;;;;;;2.55;0.93;;;;;;;3.45;100.00;98230.06;4984921;28;20117;-69
2023/03/10 07:02:55;;;;;;;1.30;0.95;;;;;;;3.47;99.72;98227.78;4980118;28;20054;-72
2023/03/10 07:05:21;;;;;;;1.02;0.93;;;;;;;3.53;99.98;98236.97;5012690;28;20083;-69
2023/03/10 07:07:49;;;;;;;0.77;0.68;;;;;;;3.57;99.65;98243.09;5050410;28;20062;-69
2023/03/10 07:10:17;;;;;;;0.43;0.43;;;;;;;3.57;99.59;98243.09;5045201;28;20033;-71
2023/03/10 07:12:44;;;;;;;0.43;0.43;;;;;;;3.61;99.60;98249.19;5047567;28;20033;-68
2023/03/10 07:15:10;;;;;;;0.35;0.35;;;;;;;3.70;98.42;98245.47;5049125;28;20091;-72
2023/03/10 07:17:36;;;;;;;1.85;0.50;;;;;;;3.79;98.13;98249.34;5041705;28;20510;-71
2023/03/10 07:20:02;;;;;;;0.90;0.90;;;;;;;3.67;98.46;98252.28;5046104;28;20064;-69
2023/03/10 07:22:27;;;;;;;4.43;1.73;;;;;;;3.52;98.40;98256.72;5050364;28;20033;-70
2023/03/10 07:24:54;;;;;;;0.93;0.88;;;;;;;3.57;99.06;98256.38;5050144;28;20028;-69
2023/03/10 07:27:19;;;;;;;1.25;1.23;;;;;;;3.56;98.91;98262.81;5049015;28;20086;-69
2023/03/10 07:29:44;;;;;;;1.02;0.63;;;;;;;3.52;99.50;98256.72;5039930;28;20033;-70
2023/03/10 07:32:10;;;;;;;1.55;1.05;;;;;;;3.58;98.89;98260.56;5038972;28;20029;-70
2023/03/10 07:34:35;;;;;;;0.68;0.68;;;;;;;3.62;99.08;98266.69;5033641;28;20037;-70
2023/03/10 07:37:01;;;;;;;1.98;1.05;;;;;;;3.64;98.22;98268.97;5031885;28;20140;-71
2023/03/10 07:39:26;;;;;;;0.60;0.60;;;;;;;3.68;98.57;98261.78;5037425;28;20395;-70
2023/03/10 07:41:52;;;;;;;0.43;0.43;;;;;;;3.67;98.33;98271.69;5047099;28;20041;-69
2023/03/10 07:44:17;;;;;;;0.35;0.35;;;;;;;3.88;98.20;98272.97;5050268;28;20072;-70
2023/03/10 07:46:43;;;;;;;0.77;0.77;;;;;;;3.93;97.57;98269.97;5049370;28;20194;-70
2023/03/10 07:49:08;;;;;;;0.82;0.82;;;;;;;3.78;98.01;98270.97;5048961;28;20040;-70
2023/03/10 07:51:34;;;;;;;0.28;0.28;;;;;;;3.67;98.29;98273.56;5049388;28;20074;-70
2023/03/10 07:53:59;;;;;;;0.55;0.55;;;;;;;3.73;98.67;98274.75;5049162;28;20039;-71
2023/03/10 07:56:25;;;;;;;0.50;0.50;;;;;;;3.68;98.63;98281.19;5048706;28;20037;-69
2023/03/10 07:58:51;;;;;;;1.10;1.08;;;;;;;3.79;98.54;98281.28;5042709;28;20037;-70
2023/03/10 08:01:21;;;;;;;1.08;0.82;;;;;;;3.90;98.22;98286.66;5063334;28;20064;-70
2023/03/10 08:03:48;;;;;;;6.35;0.80;;;;;;;3.81;97.86;98283.56;5037219;28;20079;-71
2023/03/10 08:06:22;;;;;;;1.95;1.27;;;;;;;3.66;98.29;98280.00;5050045;28;20053;-70
2023/03/10 08:08:48;;;;;;;0.98;0.98;;;;;;;3.76;97.98;98289.22;5043569;28;20724;-70
2023/03/10 08:11:14;;;;;;;3.67;0.80;;;;;;;3.72;98.39;98278.53;5043984;28;20088;-70
2023/03/10 08:13:39;;;;;;;1.40;0.93;;;;;;;3.64;98.96;98284.94;5032360;28;20033;-70
2023/03/10 08:16:05;;;;;;;0.95;0.95;;;;;;;3.68;99.00;98283.06;5048407;28;20029;-69
2023/03/10 08:18:31;;;;;;;1.38;1.08;;;;;;;3.86;98.82;98286.66;5036623;28;20398;-69
2023/03/10 08:20:57;;;;;;;0.68;0.68;;;;;;;4.03;97.60;98290.56;5048787;28;20485;-69
2023/03/10 08:23:23;;;;;;;0.80;0.80;;;;;;;4.09;97.21;98297.84;5052846;28;20045;-72
2023/03/10 08:25:49;;;;;;;1.23;1.13;;;;;;;4.13;97.03;98308.53;5037623;28;20029;-72
2023/03/10 08:28:17;;;;;;;0.30;0.30;;;;;;;4.07;96.92;98304.66;5039820;28;20036;-69
2023/03/10 08:30:43;;;;;;;5.60;1.45;;;;;;;4.00;96.85;98309.94;5052480;28;20037;-72
2023/03/10 08:33:08;;;;;;;0.30;0.30;;;;;;;3.91;97.18;98314.84;5048243;28;20035;-70
2023/03/10 08:35:35;;;;;;;0.70;0.70;;;;;;;3.94;97.73;98306.88;5034828;28;20493;-70
2023/03/10 08:38:02;;;;;;;0.70;0.70;;;;;;;3.90;97.66;98318.63;5052276;28;20017;-73
2023/03/10 08:40:27;;;;;;;0.77;0.77;;;;;;;3.87;97.72;98327.34;5043013;28;20393;-74
2023/03/10 08:42:52;;;;;;;0.70;0.70;;;;;;;4.02;97.42;98321.00;5051815;28;20115;-70
2023/03/10 08:45:18;;;;;;;0.47;0.47;;;;;;;3.99;97.39;98321.75;5051666;28;20052;-70
2023/03/10 08:48:04;;;;;;;1.38;0.75;;;;;;;3.83;97.09;98334.53;5052185;28;20056;-71
2023/03/10 08:50:29;;;;;;;0.38;0.38;;;;;;;3.83;98.11;98324.66;4965003;28;20424;-74
2023/03/10 08:52:55;;;;;;;2.65;0.82;;;;;;;3.77;98.26;98323.47;4954629;28;20177;-70
2023/03/10 08:55:20;;;;;;;0.88;0.88;;;;;;;3.84;98.10;98331.50;4971685;28;20042;-70
2023/03/10 08:57:46;;;;;;;0.63;0.63;;;;;;;3.81;98.27;98337.56;4940178;28;20164;-73
2023/03/10 09:00:12;;;;;;;0.60;0.60;;;;;;;3.60;98.26;98340.03;4939707;28;20042;-74
2023/03/10 09:02:38;;;;;;;0.98;0.98;;;;;;;3.64;99.41;98340.81;4948251;29;20043;-71
2023/03/10 09:05:04;;;;;;;0.82;0.82;;;;;;;3.70;98.85;98344.66;4956372;28;20530;-69
2023/03/10 09:07:29;;;;;;;1.05;1.00;;;;;;;3.67;99.48;98342.75;4950992;28;20042;-71
2023/03/10 09:09:54;;;;;;;1.70;1.42;;;;;;;3.77;98.63;98333.34;4968174;28;20527;-72
2023/03/10 09:12:20;;;;;;;1.33;0.95;;;;;;;3.72;98.38;98346.97;4940179;28;20412;-70
2023/03/10 09:14:46;;;;;;;0.73;0.57;;;;;;;3.82;98.61;98339.09;4956287;28;20528;-69
2023/03/10 09:17:11;;;;;;;3.42;1.73;;;;;;;4.03;98.12;98344.59;4953956;28;20031;-69
2023/03/10 09:19:37;;;;;;;1.50;1.40;;;;;;;4.11;97.64;98350.72;4955640;28;20042;-72
2023/03/10 09:22:02;;;;;;;1.00;0.98;;;;;;;4.12;97.33;98341.63;4970756;28;20054;-69
2023/03/10 09:24:28;;;;;;;0.45;0.45;;;;;;;4.03;98.22;98349.13;4967367;28;20039;-72
2023/03/10 09:26:55;;;;;;;0.85;0.50;;;;;;;4.14;97.71;98344.69;4987314;28;20135;-70
2023/03/10 09:29:20;;;;;;;1.80;1.27;;;;;;;4.11;96.92;98351.50;5051764;28;20540;-70
2023/03/10 09:31:47;;;;;;;2.05;0.80;;;;;;;4.16;96.83;98347.75;5051811;28;20061;-71
2023/03/10 09:34:13;;;;;;;0.70;0.70;;;;;;;4.03;96.87;98349.13;5023329;28;20468;-73
2023/03/10 09:36:38;;;;;;;0.75;0.75;;;;;;;4.12;97.47;98349.63;5050324;28;20051;-71
2023/03/10 09:39:04;;;;;;;0.43;0.43;;;;;;;4.26;96.75;98347.81;5042071;28;20037;-73
2023/03/10 09:41:38;;;;;;;1.00;0.93;;;;;;;4.22;96.21;98352.34;5046986;28;20025;-72
2023/03/10 09:44:47;;;;;;;1.75;0.93;;;;;;;4.14;97.02;98340.09;5044315;28;20123;-72
2023/03/10 09:47:19;;;;;;;2.30;1.30;;;;;;;3.89;96.94;98349.78;5057104;28;20087;-70
2023/03/10 09:50:10;;;;;;;1.65;0.50;;;;;;;4.03;97.65;98339.25;5045556;28;20076;-71
2023/03/10 09:53:06;;;;;;;0.60;0.60;;;;;;;4.17;96.71;98339.38;5051559;28;20053;-71
2023/03/10 09:55:40;;;;;;;0.63;0.60;;;;;;;4.22;96.02;98339.03;5049148;28;20481;-70
2023/03/10 09:58:14;;;;;;;1.17;0.82;;;;;;;4.29;96.19;98331.09;5039164;28;20764;-70
2023/03/10 10:00:42;;;;;;;0.80;0.80;;;;;;;4.38;95.66;98333.44;5045622;28;20029;-69
2023/03/10 10:03:18;;;;;;;0.30;0.30;;;;;;;4.18;96.02;98340.16;5032332;28;20065;-70
2023/03/10 10:05:45;;;;;;;0.60;0.60;;;;;;;4.20;96.02;98335.22;5028399;28;20112;-70
2023/03/10 10:08:42;;;;;;;0.35;0.35;;;;;;;4.29;95.99;98336.44;5051702;28;20029;-71
2023/03/10 10:11:14;;;;;;;0.40;0.35;;;;;;;4.24;96.22;98328.03;5047129;28;20033;-70
2023/03/10 10:13:40;;;;;;;0.73;0.73;;;;;;;4.03;96.65;98333.16;5033883;28;20033;-70
2023/03/10 10:16:25;;;;;;;1.02;1.02;;;;;;;4.19;96.65;98331.00;5050766;28;20037;-70
2023/03/10 10:18:58;;;;;;;0.40;0.40;;;;;;;4.18;96.06;98330.25;5029114;28;20067;-71
2023/03/10 10:21:41;;;;;;;0.60;0.60;;;;;;;3.92;96.95;98325.09;5048400;28;20089;-72
2023/03/10 10:24:07;;;;;;;1.23;1.23;;;;;;;3.90;97.77;98311.41;5053371;28;20045;-74
2023/03/10 10:26:32;;;;;;;0.68;0.68;;;;;;;3.99;97.34;98303.13;5039828;28;20166;-73
2023/03/10 10:29:00;;;;;;;1.02;0.98;;;;;;;3.83;98.01;98311.34;5055620;28;20038;-73
2023/03/10 10:31:30;;;;;;;0.70;0.70;;;;;;;3.74;98.65;98304.78;5025522;28;20033;-73
2023/03/10 10:34:05;;;;;;;0.52;0.52;;;;;;;3.74;99.39;98307.44;5031683;28;20049;-73
2023/03/10 10:36:46;;;;;;;1.48;1.17;;;;;;;3.72;98.96;98317.72;5035115;28;20036;-74
2023/03/10 10:39:35;;;;;;;0.63;0.63;;;;;;;3.76;99.29;98350.41;5034528;28;20501;-74
2023/03/10 10:42:29;;;;;;;0.57;0.57;;;;;;;4.12;98.13;98381.56;5045118;28;20028;-73
2023/03/10 10:44:57;;;;;;;0.82;0.82;;;;;;;4.21;97.36;98392.66;5039580;28;20041;-73
2023/03/10 10:47:28;;;;;;;0.73;0.73;;;;;;;4.23;97.59;98390.41;5046188;28;20044;-74
2023/03/10 10:50:22;;;;;;;0.90;0.73;;;;;;;4.30;96.84;98391.22;5044762;28;20116;-72
2023/03/10 10:52:51;;;;;;;1.35;0.93;;;;;;;4.42;96.34;98382.16;5025876;28;20025;-71
2023/03/10 10:55:34;;;;;;;0.82;0.82;;;;;;;4.33;96.50;98371.06;5034393;28;20541;-72
2023/03/10 10:58:02;;;;;;;0.63;0.63;;;;;;;4.43;96.59;98373.81;5043807;28;20051;-71
2023/03/10 11:00:38;;;;;;;2.30;1.13;;;;;;;4.42;96.15;98377.63;5037051;28;20485;-72
2023/03/10 11:03:28;;;;;;;2.45;0.82;;;;;;;4.58;96.16;98386.13;5036449;28;20037;-72
2023/03/10 11:05:53;;;;;;;0.98;0.60;;;;;;;4.61;95.47;98381.19;5038261;28;20029;-72
2023/03/10 11:08:39;;;;;;;1.95;1.00;;;;;;;4.70;95.41;98371.72;5033666;28;20028;-71
2023/03/10 11:11:14;;;;;;;1.08;1.05;;;;;;;4.66;95.39;98378.16;5043322;28;20059;-70
2023/03/10 11:13:45;;;;;;;2.17;1.98;;;;;;;4.64;95.59;98378.53;5033803;28;20095;-72
2023/03/10 11:16:22;;;;;;;0.63;0.63;;;;;;;4.66;95.12;98384.25;5052454;28;20061;-71
2023/03/10 11:18:54;;;;;;;1.23;1.13;;;;;;;4.66;94.73;98376.25;5046023;28;20532;-73
2023/03/10 11:21:27;;;;;;;5.95;1.75;;;;;;;4.68;94.70;98376.66;5037767;28;20100;-73
2023/03/10 11:24:18;;;;;;;0.55;0.55;;;;;;;4.47;95.69;98368.53;5048966;28;20037;-73
2023/03/10 11:27:03;;;;;;;1.45;1.20;;;;;;;4.68;95.12;98374.00;5048705;28;20485;-73
2023/03/10 11:29:35;;;;;;;1.00;1.00;;;;;;;4.75;94.77;98375.91;5053976;28;20497;-73
2023/03/10 11:32:19;;;;;;;;;;;;;;;4.73;95.35;98373.63;5050747;28;20036;-72
2023/03/10 11:34:50;;;;;;;2.05;0.88;;;;;;;4.68;94.60;98379.31;5051286;28;19951;-71
2023/03/10 11:37:38;;;;;;;;;;;;;;;4.55;95.71;98370.84;5035248;28;20038;-72
2023/03/10 11:40:23;;;;;;;0.82;0.82;;;;;;;4.57;95.67;98373.13;5049951;28;19900;-71
2023/03/10 11:43:16;;;;;;;0.77;0.77;;;;;;;4.57;95.45;98370.47;5029863;28;20649;-73
2023/03/10 11:45:41;;;;;;;0.88;0.88;;;;;;;4.52;95.87;98374.25;5046852;28;20037;-73
2023/03/10 11:48:25;;;;;;;1.88;0.90;;;;;;;4.66;96.33;98367.50;5037479;28;20044;-72
2023/03/10 11:51:00;;;;;;;0.85;0.75;;;;;;;4.64;95.28;98364.44;5039809;28;20035;-72